Time;durP1;ratioP1;P1;durP2;ratioP2;P2;SDS_P1;SDS_P2;PMS_P1;PMS_P2;Temp;Humidity;BMP_temperature;BMP_pressure;BME280_temperature;BME280_humidity;BME280_pressure;Samples;Min_cycle;Max_cycle;Signal;HPM_P1;HPM_P2
2023/05/21 00:00:52;;;;;;;20.57;15.80;;;16.50;27.70;;;;;;5080497;28;20468;-68
2023/05/21 00:03:19;;;;;;;20.50;14.90;;;16.50;27.70;;;;;;5084385;28;21034;-68
2023/05/21 00:05:48;;;;;;;18.87;15.87;;;16.50;27.80;;;;;;5088723;28;20464;-68
2023/05/21 00:08:15;;;;;;;18.70;16.10;;;16.50;27.90;;;;;;5091476;28;20520;-68
2023/05/21 00:10:42;;;;;;;17.77;15.50;;;16.40;28.10;;;;;;5089130;28;20623;-68
2023/05/21 00:13:10;;;;;;;20.07;15.70;;;16.40;28.50;;;;;;5079221;28;20495;-68
2023/05/21 00:15:37;;;;;;;23.60;16.90;;;16.40;28.70;;;;;;5084077;28;20467;-68
2023/05/21 00:18:04;;;;;;;21.53;16.40;;;16.40;28.90;;;;;;5084152;28;20484;-69
2023/05/21 00:20:31;;;;;;;20.07;15.43;;;16.40;29.10;;;;;;5082832;28;20965;-68
2023/05/21 00:22:58;;;;;;;19.77;16.17;;;16.40;29.20;;;;;;5087628;28;21084;-68
2023/05/21 00:25:25;;;;;;;25.73;16.83;;;16.40;29.40;;;;;;5083548;28;20833;-68
2023/05/21 00:27:51;;;;;;;21.73;17.83;;;16.40;29.50;;;;;;5089523;28;20467;-68
2023/05/21 00:30:19;;;;;;;18.00;16.07;;;16.40;29.70;;;;;;5082462;28;20477;-68
2023/05/21 00:32:46;;;;;;;18.47;16.17;;;16.30;30.00;;;;;;5086988;28;20492;-69
2023/05/21 00:35:13;;;;;;;21.70;16.57;;;16.30;30.20;;;;;;5084452;28;20471;-68
2023/05/21 00:37:40;;;;;;;19.23;15.70;;;16.30;30.30;;;;;;5085111;28;20467;-69
2023/05/21 00:40:08;;;;;;;18.27;15.60;;;16.20;30.40;;;;;;5080870;28;20456;-68
2023/05/21 00:42:38;;;;;;;20.20;15.93;;;16.20;30.60;;;;;;5088392;28;20520;-68
2023/05/21 00:45:07;;;;;;;19.40;16.50;;;16.20;30.60;;;;;;5079509;28;20471;-69
2023/05/21 00:47:35;;;;;;;20.53;17.10;;;16.20;30.60;;;;;;5083296;28;20552;-68
2023/05/21 00:50:05;;;;;;;19.70;16.63;;;16.20;30.80;;;;;;5084396;28;20477;-68
2023/05/21 00:52:32;;;;;;;24.57;18.70;;;16.20;31.10;;;;;;5084241;28;20506;-68
2023/05/21 00:54:58;;;;;;;22.93;16.23;;;16.20;31.20;;;;;;5080478;28;20528;-68
2023/05/21 00:57:26;;;;;;;20.90;17.13;;;16.20;31.10;;;;;;5081841;28;20456;-68
2023/05/21 00:59:54;;;;;;;25.20;18.53;;;16.10;31.30;;;;;;5084622;28;20517;-68
2023/05/21 01:02:22;;;;;;;22.17;16.90;;;16.10;31.40;;;;;;5081195;28;20511;-68
2023/05/21 01:04:51;;;;;;;22.17;17.10;;;16.10;31.50;;;;;;5082549;28;20464;-68
2023/05/21 01:07:18;;;;;;;21.73;16.57;;;16.00;31.70;;;;;;5078443;28;20452;-68
2023/05/21 01:09:45;;;;;;;23.30;17.83;;;16.00;31.80;;;;;;5087904;28;20484;-68
2023/05/21 01:12:13;;;;;;;21.27;17.23;;;16.10;32.40;;;;;;5081623;28;20481;-68
2023/05/21 01:14:41;;;;;;;21.40;16.63;;;16.00;31.80;;;;;;5080944;28;20472;-68
2023/05/21 01:17:09;;;;;;;22.40;17.50;;;16.00;32.10;;;;;;5085596;28;20833;-69
2023/05/21 01:19:36;;;;;;;20.40;16.80;;;16.00;32.10;;;;;;5085024;28;21147;-68
2023/05/21 01:22:06;;;;;;;19.07;16.43;;;16.00;32.20;;;;;;5082372;28;21011;-68
2023/05/21 01:24:35;;;;;;;25.30;17.40;;;16.00;32.50;;;;;;5080816;28;20496;-68
2023/05/21 01:27:05;;;;;;;19.67;17.10;;;16.00;32.40;;;;;;5083543;28;20456;-69
2023/05/21 01:29:32;;;;;;;23.30;17.87;;;15.90;32.50;;;;;;5083269;28;20529;-68
2023/05/21 01:32:05;;;;;;;23.67;18.80;;;15.90;32.70;;;;;;5080950;28;21172;-68
2023/05/21 01:34:39;;;;;;;20.30;16.93;;;15.90;33.00;;;;;;5081229;28;20574;-68
2023/05/21 01:37:14;;;;;;;22.20;17.60;;;15.90;33.00;;;;;;5086538;28;20456;-69
2023/05/21 01:39:46;;;;;;;22.20;18.20;;;15.90;33.30;;;;;;5080997;28;20542;-68
2023/05/21 01:42:15;;;;;;;21.87;17.53;;;15.80;33.00;;;;;;5084222;28;20483;-68
2023/05/21 01:44:42;;;;;;;20.90;17.63;;;15.80;33.10;;;;;;5087217;28;20464;-68
2023/05/21 01:47:10;;;;;;;22.03;19.03;;;15.90;33.10;;;;;;5088863;28;20467;-68
2023/05/21 01:49:37;;;;;;;22.23;18.37;;;15.80;33.20;;;;;;5088406;28;20494;-68
2023/05/21 01:52:04;;;;;;;24.80;17.70;;;15.80;33.20;;;;;;5088801;28;20979;-68
2023/05/21 01:54:31;;;;;;;22.53;17.90;;;15.70;33.30;;;;;;5085070;28;20534;-68
2023/05/21 01:57:00;;;;;;;21.67;17.80;;;15.70;33.40;;;;;;5085664;28;20468;-68
2023/05/21 01:59:28;;;;;;;26.77;17.07;;;15.70;33.70;;;;;;5080517;28;20875;-68
2023/05/21 02:01:55;;;;;;;21.10;18.03;;;15.70;33.90;;;;;;5087372;28;20487;-68
2023/05/21 02:04:22;;;;;;;20.70;18.33;;;15.60;33.80;;;;;;5087933;28;20476;-68
2023/05/21 02:06:48;;;;;;;22.33;18.83;;;15.60;34.20;;;;;;5085730;28;20457;-68
2023/05/21 02:09:15;;;;;;;25.73;19.53;;;15.60;34.10;;;;;;5082943;28;20460;-68
2023/05/21 02:11:42;;;;;;;22.97;19.70;;;15.60;34.30;;;;;;5081332;28;20479;-68
2023/05/21 02:14:12;;;;;;;25.33;20.87;;;15.60;34.30;;;;;;5080601;28;20460;-68
2023/05/21 02:16:40;;;;;;;20.00;17.83;;;15.60;34.30;;;;;;5085898;28;20456;-68
2023/05/21 02:19:09;;;;;;;22.13;19.23;;;15.60;34.40;;;;;;5085413;28;20466;-68
2023/05/21 02:21:36;;;;;;;22.83;20.20;;;15.50;34.50;;;;;;5089057;28;20453;-68
2023/05/21 02:24:02;;;;;;;24.50;20.60;;;15.50;34.50;;;;;;5083064;28;20468;-68
2023/05/21 02:26:30;;;;;;;24.37;20.80;;;15.40;34.50;;;;;;5090388;28;20463;-68
2023/05/21 02:28:57;;;;;;;24.67;20.23;;;15.40;34.50;;;;;;5084341;28;20479;-68
2023/05/21 02:31:25;;;;;;;23.50;20.27;;;15.40;34.80;;;;;;5081724;28;20487;-68
2023/05/21 02:33:51;;;;;;;26.17;19.53;;;15.40;34.80;;;;;;5085604;28;20472;-69
2023/05/21 02:36:18;;;;;;;22.73;18.77;;;15.40;34.90;;;;;;5088991;28;20822;-68
2023/05/21 02:38:45;;;;;;;22.37;18.30;;;15.30;35.10;;;;;;5088937;28;20483;-68
2023/05/21 02:41:12;;;;;;;23.60;19.23;;;15.30;35.10;;;;;;5080412;28;20875;-68
2023/05/21 02:43:39;;;;;;;25.63;20.07;;;15.30;35.30;;;;;;5083576;28;20844;-68
2023/05/21 02:46:07;;;;;;;23.20;18.63;;;15.30;35.70;;;;;;5085371;28;20945;-68
2023/05/21 02:48:35;;;;;;;22.87;19.10;;;15.30;35.90;;;;;;5085558;28;20460;-68
2023/05/21 02:51:02;;;;;;;22.83;18.30;;;15.20;35.80;;;;;;5079616;28;20521;-68
2023/05/21 02:53:28;;;;;;;23.93;19.83;;;15.20;35.90;;;;;;5087562;28;20508;-68
2023/05/21 02:55:55;;;;;;;27.30;21.03;;;15.20;36.30;;;;;;5085112;28;20460;-68
2023/05/21 02:58:24;;;;;;;23.50;19.77;;;15.20;36.30;;;;;;5084538;28;20461;-68
2023/05/21 03:00:51;;;;;;;27.00;20.53;;;15.20;36.20;;;;;;5084490;28;20468;-68
2023/05/21 03:03:17;;;;;;;23.63;20.37;;;15.10;36.20;;;;;;5070415;28;20486;-68
2023/05/21 03:05:47;;;;;;;25.50;19.83;;;15.10;36.30;;;;;;5085613;28;20460;-68
2023/05/21 03:08:13;;;;;;;24.97;19.73;;;15.10;36.30;;;;;;5084602;28;20460;-68
2023/05/21 03:10:40;;;;;;;23.80;20.27;;;15.10;36.40;;;;;;5081986;28;20491;-68
2023/05/21 03:13:07;;;;;;;26.63;21.00;;;15.00;36.40;;;;;;5087605;28;20476;-68
2023/05/21 03:15:34;;;;;;;26.20;21.27;;;15.00;36.60;;;;;;5081584;28;20479;-68
2023/05/21 03:18:01;;;;;;;26.60;21.60;;;15.00;36.60;;;;;;5086278;28;20461;-68
2023/05/21 03:20:28;;;;;;;27.33;22.67;;;14.90;36.70;;;;;;5080786;28;20875;-68
2023/05/21 03:22:56;;;;;;;25.13;20.23;;;14.90;36.80;;;;;;5083654;28;20488;-68
2023/05/21 03:25:24;;;;;;;27.60;20.13;;;14.90;36.90;;;;;;5086912;28;20475;-68
2023/05/21 03:27:51;;;;;;;25.20;20.50;;;14.90;36.90;;;;;;5086664;28;20517;-68
2023/05/21 03:30:18;;;;;;;24.70;20.70;;;14.90;37.00;;;;;;5083912;28;20524;-68
2023/05/21 03:32:44;;;;;;;25.40;20.60;;;14.90;37.00;;;;;;5083618;28;20509;-68
2023/05/21 03:35:11;;;;;;;26.20;21.87;;;14.80;37.00;;;;;;5086604;28;20488;-69
2023/05/21 03:37:38;;;;;;;27.77;21.80;;;14.80;37.20;;;;;;5087893;28;20467;-68
2023/05/21 03:40:08;;;;;;;33.70;21.10;;;14.80;37.10;;;;;;5083462;28;20954;-68
2023/05/21 03:42:34;;;;;;;29.03;22.77;;;14.80;37.60;;;;;;5086635;28;20480;-68
2023/05/21 03:45:01;;;;;;;33.27;22.27;;;14.80;37.60;;;;;;5085613;28;20491;-68
2023/05/21 03:47:28;;;;;;;24.63;21.40;;;14.80;37.70;;;;;;5087813;28;20479;-68
2023/05/21 03:49:55;;;;;;;25.23;21.23;;;14.70;37.70;;;;;;5081844;28;20456;-68
2023/05/21 03:52:21;;;;;;;26.50;22.10;;;14.70;37.90;;;;;;5086223;28;20484;-68
2023/05/21 03:54:48;;;;;;;27.27;24.37;;;14.80;37.90;;;;;;5085705;28;20456;-68
2023/05/21 03:57:16;;;;;;;27.17;24.37;;;14.80;37.80;;;;;;5085102;28;20990;-68
2023/05/21 03:59:43;;;;;;;27.03;21.30;;;14.80;37.90;;;;;;5082660;28;20535;-68
2023/05/21 04:02:10;;;;;;;27.43;22.33;;;14.70;37.80;;;;;;5084977;28;20470;-68
2023/05/21 04:04:36;;;;;;;24.80;22.13;;;14.80;37.70;;;;;;5080849;28;20461;-68
2023/05/21 04:07:04;;;;;;;24.80;20.60;;;14.80;37.80;;;;;;5088482;28;20459;-68
2023/05/21 04:09:31;;;;;;;24.53;20.77;;;14.80;37.70;;;;;;5086673;28;20554;-68
2023/05/21 04:11:57;;;;;;;23.73;20.53;;;14.80;37.70;;;;;;5084601;28;20483;-68
2023/05/21 04:14:25;;;;;;;26.90;21.13;;;14.80;37.80;;;;;;5085527;28;20937;-68
2023/05/21 04:16:52;;;;;;;25.37;20.60;;;14.80;37.70;;;;;;5085105;28;20460;-68
2023/05/21 04:19:19;;;;;;;26.20;21.93;;;14.80;37.70;;;;;;5086852;28;20456;-68
2023/05/21 04:21:45;;;;;;;21.27;18.60;;;14.80;37.70;;;;;;5083207;28;20480;-68
2023/05/21 04:24:12;;;;;;;25.90;19.00;;;14.80;37.40;;;;;;5084334;28;20468;-68
2023/05/21 04:26:41;;;;;;;25.43;19.07;;;14.90;37.50;;;;;;5079775;28;20468;-68
2023/05/21 04:29:08;;;;;;;23.20;19.70;;;14.90;37.60;;;;;;5081808;28;20469;-68
2023/05/21 04:31:36;;;;;;;23.07;19.30;;;15.00;37.50;;;;;;5087352;28;20476;-68
2023/05/21 04:34:04;;;;;;;24.40;20.30;;;15.00;37.80;;;;;;5084893;28;20452;-68
2023/05/21 04:36:30;;;;;;;25.27;18.57;;;14.90;38.20;;;;;;5081352;28;20489;-68
2023/05/21 04:38:57;;;;;;;24.77;18.93;;;15.00;37.90;;;;;;5084534;28;20464;-68
2023/05/21 04:41:24;;;;;;;23.60;20.70;;;15.00;37.90;;;;;;5085568;28;20467;-68
2023/05/21 04:43:53;;;;;;;25.43;19.90;;;15.10;37.70;;;;;;5085200;28;20456;-68
2023/05/21 04:46:23;;;;;;;24.80;19.07;;;15.20;37.60;;;;;;5079901;28;20918;-68
2023/05/21 04:48:53;;;;;;;25.80;19.80;;;15.20;37.30;;;;;;5084637;28;20461;-68
2023/05/21 04:51:20;;;;;;;26.30;20.20;;;15.40;37.20;;;;;;5083687;28;20541;-68
2023/05/21 04:53:48;;;;;;;21.93;18.40;;;15.50;37.10;;;;;;5082264;28;20471;-68
2023/05/21 04:56:16;;;;;;;23.20;17.80;;;15.60;36.80;;;;;;5084227;28;20867;-69
2023/05/21 04:58:43;;;;;;;27.53;19.17;;;15.70;36.50;;;;;;5082832;28;20490;-68
2023/05/21 05:01:11;;;;;;;21.17;17.60;;;15.90;36.10;;;;;;5082151;28;20473;-68
2023/05/21 05:03:37;;;;;;;22.17;16.87;;;15.90;36.10;;;;;;5081566;28;20926;-68
2023/05/21 05:06:07;;;;;;;22.80;17.27;;;16.00;35.50;;;;;;5086108;28;20458;-68
2023/05/21 05:08:34;;;;;;;23.17;18.33;;;16.10;35.40;;;;;;5083800;28;20464;-69
2023/05/21 05:11:01;;;;;;;20.77;17.57;;;16.30;35.10;;;;;;5079226;28;20491;-69
2023/05/21 05:13:27;;;;;;;20.80;17.73;;;16.50;34.70;;;;;;5074041;28;20564;-68
2023/05/21 05:15:56;;;;;;;23.10;17.43;;;16.60;34.10;;;;;;5087725;28;20468;-68
2023/05/21 05:18:23;;;;;;;23.87;19.03;;;16.80;33.90;;;;;;5085014;28;20474;-68
2023/05/21 05:20:49;;;;;;;22.80;18.50;;;17.00;33.30;;;;;;5082174;28;20461;-68
2023/05/21 05:23:17;;;;;;;21.00;16.57;;;17.30;32.80;;;;;;5084562;28;20853;-68
2023/05/21 05:25:44;;;;;;;19.63;16.40;;;17.60;32.00;;;;;;5087620;28;20928;-69
2023/05/21 05:28:11;;;;;;;18.27;15.27;;;17.80;31.10;;;;;;5087944;28;20460;-69
2023/05/21 05:30:37;;;;;;;17.80;15.10;;;18.00;30.00;;;;;;5088561;28;20460;-68
2023/05/21 05:33:04;;;;;;;19.73;15.70;;;18.20;29.30;;;;;;5090462;28;20483;-68
2023/05/21 05:35:31;;;;;;;19.40;15.33;;;18.30;28.70;;;;;;5086611;28;20467;-68
2023/05/21 05:37:58;;;;;;;18.17;15.67;;;18.50;28.10;;;;;;5087696;28;20840;-68
2023/05/21 05:40:26;;;;;;;16.20;14.40;;;18.50;27.50;;;;;;5086456;28;20472;-69
2023/05/21 05:42:52;;;;;;;18.17;14.80;;;18.80;26.90;;;;;;5089617;28;20487;-69
2023/05/21 05:45:19;;;;;;;17.80;15.83;;;18.90;26.30;;;;;;5079975;28;20488;-68
2023/05/21 05:47:46;;;;;;;19.37;14.93;;;19.10;25.60;;;;;;5088212;28;20460;-69
2023/05/21 05:50:14;;;;;;;17.50;15.07;;;19.40;24.80;;;;;;5088109;28;20476;-68
2023/05/21 05:52:41;;;;;;;18.43;15.40;;;19.70;24.00;;;;;;5085386;28;20988;-69
2023/05/21 05:55:10;;;;;;;18.67;14.77;;;20.30;22.90;;;;;;5088005;28;20464;-69
2023/05/21 05:57:38;;;;;;;17.90;14.13;;;21.40;20.70;;;;;;5086003;28;20461;-69
2023/05/21 06:00:08;;;;;;;16.70;13.50;;;22.40;17.80;;;;;;5083274;28;20510;-69
2023/05/21 06:02:35;;;;;;;16.30;14.60;;;23.00;15.60;;;;;;5087239;28;20498;-69
2023/05/21 06:05:01;;;;;;;14.63;13.03;;;23.00;14.30;;;;;;5088419;28;20464;-69
2023/05/21 06:07:28;;;;;;;15.10;12.73;;;22.80;14.30;;;;;;5085826;28;20459;-69
2023/05/21 06:09:55;;;;;;;15.70;14.00;;;22.70;14.60;;;;;;5085402;28;20467;-68
2023/05/21 06:12:21;;;;;;;15.47;13.40;;;22.50;14.70;;;;;;5089508;28;20484;-69
2023/05/21 06:14:49;;;;;;;15.50;13.90;;;22.40;14.80;;;;;;5086725;28;20491;-68
2023/05/21 06:17:16;;;;;;;16.40;13.80;;;22.30;14.90;;;;;;5086080;28;20986;-68
2023/05/21 06:19:44;;;;;;;17.40;14.20;;;22.10;15.20;;;;;;5085158;28;20468;-68
2023/05/21 06:22:10;;;;;;;15.10;13.50;;;22.00;15.40;;;;;;5083644;28;20485;-69
2023/05/21 06:24:37;;;;;;;17.10;13.80;;;21.90;16.20;;;;;;5093291;28;20467;-68
2023/05/21 06:27:04;;;;;;;17.50;13.87;;;21.80;15.90;;;;;;5080895;28;20461;-69
2023/05/21 06:29:31;;;;;;;15.83;14.03;;;21.70;16.10;;;;;;5085722;28;20503;-69
2023/05/21 06:31:59;;;;;;;20.40;15.07;;;21.50;16.30;;;;;;5080371;28;20849;-69
2023/05/21 06:34:26;;;;;;;17.53;14.53;;;21.50;16.60;;;;;;5080812;28;20460;-69
2023/05/21 06:36:53;;;;;;;17.20;15.10;;;21.40;16.80;;;;;;5079713;28;20474;-68
2023/05/21 06:39:19;;;;;;;18.30;14.50;;;21.40;17.10;;;;;;5089976;28;20463;-69
2023/05/21 06:41:46;;;;;;;16.77;14.57;;;21.30;17.30;;;;;;5086459;28;20472;-69
2023/05/21 06:44:14;;;;;;;16.50;13.13;;;21.20;17.40;;;;;;5085297;28;20475;-68
2023/05/21 06:46:41;;;;;;;15.40;13.43;;;21.20;17.70;;;;;;5079010;28;20457;-68
2023/05/21 06:49:09;;;;;;;14.67;13.17;;;21.20;17.80;;;;;;5089057;28;20862;-68
2023/05/21 06:51:36;;;;;;;15.33;13.60;;;21.20;17.70;;;;;;5081437;28;20480;-69
2023/05/21 06:54:03;;;;;;;16.03;14.23;;;21.20;17.70;;;;;;5082494;28;20457;-69
2023/05/21 06:56:30;;;;;;;16.57;13.50;;;21.30;17.60;;;;;;5083850;28;20456;-69
2023/05/21 06:58:56;;;;;;;15.17;13.10;;;21.40;17.30;;;;;;5086345;28;20463;-69
2023/05/21 07:01:23;;;;;;;15.83;13.53;;;21.50;17.20;;;;;;5082884;28;20479;-69
2023/05/21 07:03:50;;;;;;;18.10;14.00;;;21.60;17.00;;;;;;5082479;28;20456;-71
2023/05/21 07:06:18;;;;;;;14.77;13.00;;;21.70;16.80;;;;;;5082572;28;20488;-69
2023/05/21 07:08:45;;;;;;;14.30;12.30;;;21.70;16.10;;;;;;5082218;28;20460;-68
2023/05/21 07:11:11;;;;;;;13.23;11.80;;;21.80;15.80;;;;;;5080852;28;20462;-68
2023/05/21 07:13:38;;;;;;;15.23;11.30;;;22.00;15.30;;;;;;5085545;28;20484;-68
2023/05/21 07:16:05;;;;;;;15.93;12.90;;;22.40;14.70;;;;;;5083232;28;20457;-68
2023/05/21 07:18:32;;;;;;;14.57;12.67;;;22.80;13.70;;;;;;5085056;28;20737;-69
2023/05/21 07:20:59;;;;;;;13.73;11.97;;;23.20;12.40;;;;;;5085729;28;20468;-70
2023/05/21 07:23:27;;;;;;;14.13;12.50;;;23.60;12.30;;;;;;5078896;28;20495;-69
2023/05/21 07:25:53;;;;;;;15.83;12.30;;;24.20;11.20;;;;;;5081558;28;20464;-69
2023/05/21 07:28:20;;;;;;;13.10;11.63;;;24.90;8.70;;;;;;5082740;28;21022;-69
2023/05/21 07:30:47;;;;;;;12.90;11.37;;;25.40;7.50;;;;;;5081639;28;20476;-69
2023/05/21 07:33:14;;;;;;;14.03;10.87;;;26.00;6.90;;;;;;5080701;28;20500;-69
2023/05/21 07:35:40;;;;;;;12.93;11.40;;;27.00;5.60;;;;;;5080101;28;20465;-69
2023/05/21 07:38:07;;;;;;;12.80;11.13;;;28.00;3.90;;;;;;5079613;28;20471;-69
2023/05/21 07:40:35;;;;;;;11.47;10.27;;;29.00;2.20;;;;;;5081365;28;20975;-69
2023/05/21 07:43:02;;;;;;;11.97;10.70;;;29.50;1.00;;;;;;5080118;28;20485;-69
2023/05/21 07:45:28;;;;;;;11.50;10.27;;;30.00;1.00;;;;;;5078735;28;20453;-69
2023/05/21 07:47:55;;;;;;;14.30;10.37;;;30.40;1.00;;;;;;5079996;28;20977;-69
2023/05/21 07:50:22;;;;;;;12.07;10.80;;;31.20;1.00;;;;;;5078410;28;20456;-69
2023/05/21 07:52:48;;;;;;;12.47;9.93;;;31.80;1.00;;;;;;5079548;28;20485;-69
2023/05/21 07:55:15;;;;;;;11.90;10.30;;;32.20;1.00;;;;;;5081836;28;20986;-69
2023/05/21 07:57:44;;;;;;;12.77;10.27;;;32.30;1.00;;;;;;5080065;28;20468;-69
2023/05/21 08:00:13;;;;;;;11.77;9.43;;;32.10;1.00;;;;;;5079164;28;20457;-69
2023/05/21 08:02:39;;;;;;;12.40;10.40;;;31.70;1.00;;;;;;5077132;28;20465;-69
2023/05/21 08:05:07;;;;;;;12.00;9.80;;;31.40;1.00;;;;;;5079995;28;20500;-70
2023/05/21 08:07:33;;;;;;;11.70;10.50;;;31.10;1.00;;;;;;5078912;28;20460;-69
2023/05/21 08:10:00;;;;;;;10.80;9.70;;;31.00;1.00;;;;;;5075557;28;20971;-69
2023/05/21 08:12:27;;;;;;;13.33;10.93;;;30.90;1.00;;;;;;5079245;28;20513;-69
2023/05/21 08:14:56;;;;;;;11.47;9.80;;;30.60;1.00;;;;;;5080483;28;20460;-69
2023/05/21 08:17:23;;;;;;;12.83;9.67;;;30.50;1.00;;;;;;5078731;28;20460;-69
2023/05/21 08:19:50;;;;;;;16.27;12.53;;;30.40;1.00;;;;;;5080406;28;20964;-69
2023/05/21 08:22:17;;;;;;;11.83;10.20;;;30.40;1.00;;;;;;5082123;28;21022;-69
2023/05/21 08:24:43;;;;;;;13.70;10.37;;;30.20;1.00;;;;;;5085083;28;20464;-69
2023/05/21 08:27:10;;;;;;;12.20;10.90;;;29.80;1.00;;;;;;5076779;28;20469;-70
2023/05/21 08:29:37;;;;;;;13.10;10.00;;;29.60;1.00;;;;;;5079074;28;20456;-73
2023/05/21 08:32:06;;;;;;;10.37;9.27;;;29.60;1.00;;;;;;5073843;28;20598;-70
2023/05/21 08:34:33;;;;;;;10.93;9.83;;;29.40;1.00;;;;;;5080506;28;20936;-73
2023/05/21 08:36:59;;;;;;;11.60;10.40;;;29.40;1.00;;;;;;5076305;28;20455;-72
2023/05/21 08:39:26;;;;;;;12.50;11.20;;;29.50;1.00;;;;;;5083933;28;20456;-69
2023/05/21 08:42:00;;;;;;;12.13;10.63;;;29.40;1.00;;;;;;5079955;28;20472;-72
2023/05/21 08:44:28;;;;;;;11.67;10.40;;;29.20;1.00;;;;;;5083684;28;20457;-72
2023/05/21 08:46:55;;;;;;;11.43;10.13;;;29.00;1.00;;;;;;5081340;28;20460;-72
2023/05/21 08:49:29;;;;;;;14.00;11.00;;;28.80;1.00;;;;;;5081465;28;20829;-74
2023/05/21 08:51:57;;;;;;;10.77;9.60;;;28.60;1.00;;;;;;5076981;28;20908;-77
2023/05/21 08:54:24;;;;;;;11.67;10.40;;;28.40;1.00;;;;;;5080725;28;20497;-77
2023/05/21 08:56:52;;;;;;;11.10;9.80;;;28.20;1.00;;;;;;5081327;28;20452;-74
2023/05/21 08:59:21;;;;;;;12.40;10.53;;;28.10;1.20;;;;;;5086427;28;20476;-74
2023/05/21 09:01:49;;;;;;;11.30;9.60;;;28.10;1.50;;;;;;5082055;28;20487;-74
2023/05/21 09:04:17;;;;;;;13.53;11.23;;;28.10;1.60;;;;;;5082430;28;20464;-74
2023/05/21 09:06:46;;;;;;;11.90;10.37;;;28.10;1.10;;;;;;5084728;28;20460;-74
2023/05/21 09:09:19;;;;;;;10.70;9.50;;;28.00;1.20;;;;;;5082130;28;20464;-74
2023/05/21 09:11:47;;;;;;;12.50;9.63;;;27.90;1.40;;;;;;5074912;28;20485;-74
2023/05/21 09:14:14;;;;;;;11.17;9.80;;;27.80;1.60;;;;;;5080400;28;20877;-73
2023/05/21 09:16:41;;;;;;;12.67;9.73;;;27.90;1.60;;;;;;5084223;28;20465;-74
2023/05/21 09:19:08;;;;;;;11.83;9.97;;;28.00;1.70;;;;;;5081504;28;20472;-73
2023/05/21 09:21:35;;;;;;;12.13;10.20;;;28.30;1.40;;;;;;5081056;28;20872;-73
2023/05/21 09:24:04;;;;;;;11.57;9.43;;;28.50;1.00;;;;;;5078723;28;20507;-74
2023/05/21 09:26:31;;;;;;;11.40;9.70;;;28.60;1.00;;;;;;5081478;28;20483;-74
2023/05/21 09:29:00;;;;;;;12.30;10.43;;;28.60;1.00;;;;;;5075567;28;20468;-74
2023/05/21 09:31:27;;;;;;;12.00;9.97;;;28.30;1.00;;;;;;5084198;28;20517;-73
2023/05/21 09:33:55;;;;;;;9.60;8.50;;;28.30;1.00;;;;;;5081748;28;20475;-74
2023/05/21 09:36:22;;;;;;;11.40;9.30;;;28.30;1.00;;;;;;5077924;28;20542;-73
2023/05/21 09:38:50;;;;;;;13.03;9.43;;;28.50;1.00;;;;;;5080242;28;20463;-74
2023/05/21 09:41:18;;;;;;;11.43;8.60;;;28.40;1.00;;;;;;5084098;28;20465;-74
2023/05/21 09:43:45;;;;;;;12.83;8.83;;;28.40;1.00;;;;;;5082891;28;20461;-73
2023/05/21 09:46:12;;;;;;;11.23;8.80;;;28.50;1.00;;;;;;5081917;28;20469;-74
2023/05/21 09:48:40;;;;;;;11.17;8.40;;;28.50;1.00;;;;;;5079368;28;20469;-73
2023/05/21 09:51:12;;;;;;;12.60;8.27;;;28.30;1.00;;;;;;5078955;28;20463;-73
2023/05/21 09:53:49;;;;;;;11.93;10.07;;;28.20;1.00;;;;;;5082470;28;20483;-73
2023/05/21 09:56:21;;;;;;;13.00;10.30;;;28.10;1.00;;;;;;5079043;28;20463;-73
2023/05/21 09:58:47;;;;;;;11.03;9.73;;;27.80;1.00;;;;;;5075880;28;20820;-74
2023/05/21 10:01:14;;;;;;;14.60;10.17;;;27.40;1.00;;;;;;5080721;28;20479;-73
2023/05/21 10:03:43;;;;;;;12.37;10.37;;;26.90;1.00;;;;;;5084563;28;20464;-73
2023/05/21 10:06:11;;;;;;;13.67;9.70;;;26.60;1.20;;;;;;5080031;28;20457;-73
2023/05/21 10:08:42;;;;;;;13.00;10.03;;;26.40;2.40;;;;;;5090017;28;20459;-74
2023/05/21 10:11:11;;;;;;;11.60;9.60;;;26.40;2.80;;;;;;5090818;28;20456;-73
2023/05/21 10:13:44;;;;;;;12.70;9.60;;;26.50;2.80;;;;;;5080335;28;20487;-73
2023/05/21 10:16:12;;;;;;;11.07;9.70;;;26.20;2.90;;;;;;5079779;28;20473;-73
2023/05/21 10:18:40;;;;;;;11.70;10.07;;;26.00;3.20;;;;;;5089746;28;20451;-70
2023/05/21 10:21:07;;;;;;;11.30;9.57;;;25.90;3.50;;;;;;5085164;28;20460;-73
2023/05/21 10:23:36;;;;;;;11.10;9.50;;;25.80;3.90;;;;;;5086554;28;20492;-73
2023/05/21 10:26:03;;;;;;;12.27;10.00;;;25.60;4.10;;;;;;5086336;28;20470;-73
2023/05/21 10:28:32;;;;;;;12.13;9.50;;;25.30;4.20;;;;;;5081126;28;20469;-73
2023/05/21 10:31:01;;;;;;;12.70;9.80;;;25.20;4.70;;;;;;5085559;28;20508;-73
2023/05/21 10:33:29;;;;;;;12.30;9.50;;;25.20;4.50;;;;;;5078987;28;20576;-73
2023/05/21 10:35:58;;;;;;;10.87;9.43;;;25.20;3.60;;;;;;5078626;28;20484;-73
2023/05/21 10:38:25;;;;;;;11.17;8.87;;;25.20;3.30;;;;;;5083347;28;20541;-73
2023/05/21 10:40:53;;;;;;;10.70;8.90;;;25.20;4.10;;;;;;5082581;28;20547;-72
2023/05/21 10:43:48;;;;;;;10.97;8.87;;;25.40;4.50;;;;;;5083548;28;20546;-73
2023/05/21 10:46:53;;;;;;;11.20;8.23;;;25.60;4.60;;;;;;5080457;28;20464;-73
2023/05/21 10:49:33;;;;;;;11.70;9.10;;;25.60;3.10;;;;;;5031029;28;20464;-73
2023/05/21 10:52:08;;;;;;;12.47;9.60;;;25.60;3.60;;;;;;5081971;28;20484;-73
2023/05/21 10:54:53;;;;;;;13.10;8.47;;;25.50;3.40;;;;;;5083235;28;20507;-71
2023/05/21 10:57:34;;;;;;;10.87;8.87;;;25.30;4.30;;;;;;5087147;28;20460;-73
2023/05/21 11:00:02;;;;;;;15.00;8.23;;;25.30;3.60;;;;;;5080923;28;20480;-72
2023/05/21 11:02:31;;;;;;;12.87;9.10;;;25.20;4.30;;;;;;5085895;28;20522;-71
2023/05/21 11:05:02;;;;;;;12.60;9.80;;;25.20;4.70;;;;;;5078576;28;21015;-73
2023/05/21 11:07:52;;;;;;;15.57;9.50;;;25.20;5.10;;;;;;5086691;28;20456;-73
2023/05/21 11:10:39;;;;;;;11.43;7.80;;;25.40;5.40;;;;;;5078079;28;20864;-72
2023/05/21 11:13:08;;;;;;;10.63;8.43;;;25.40;4.10;;;;;;5082240;28;20533;-73
2023/05/21 11:16:06;;;;;;;11.90;7.90;;;25.30;4.00;;;;;;5082300;28;20463;-74
2023/05/21 11:19:00;;;;;;;12.73;8.00;;;25.20;4.00;;;;;;5088002;28;20532;-74
2023/05/21 11:21:34;;;;;;;9.00;7.50;;;25.10;3.60;;;;;;5044949;28;20464;-74
2023/05/21 11:24:07;;;;;;;9.83;7.40;;;25.10;4.60;;;;;;5085565;28;20512;-74
2023/05/21 11:27:05;;;;;;;11.17;8.57;;;25.10;4.00;;;;;;5080032;28;20552;-74
2023/05/21 11:29:39;;;;;;;9.83;8.00;;;25.00;4.60;;;;;;5086237;28;20467;-74
2023/05/21 11:32:07;;;;;;;12.80;8.23;;;25.00;4.20;;;;;;5084929;28;20473;-74
2023/05/21 11:34:39;;;;;;;10.90;8.10;;;25.00;4.50;;;;;;5084755;28;20520;-74
2023/05/21 11:37:30;;;;;;;9.30;7.33;;;25.00;3.80;;;;;;5076111;28;20453;-73
2023/05/21 11:40:15;;;;;;;10.40;7.83;;;24.80;4.60;;;;;;5079481;28;21025;-74
2023/05/21 11:42:48;;;;;;;8.83;7.63;;;24.70;4.00;;;;;;5082860;28;20472;-74
2023/05/21 11:45:18;;;;;;;13.93;9.17;;;24.70;5.30;;;;;;5080797;28;20456;-73
2023/05/21 11:47:44;;;;;;;10.47;8.10;;;24.70;5.80;;;;;;5080450;28;20969;-73
2023/05/21 11:50:14;;;;;;;9.30;7.77;;;24.70;5.60;;;;;;5080264;28;20463;-68
2023/05/21 11:52:42;;;;;;;11.87;8.43;;;24.70;5.30;;;;;;5083690;28;21002;-71
2023/05/21 11:55:10;;;;;;;9.47;7.20;;;24.70;5.40;;;;;;5079885;28;20967;-71
2023/05/21 11:57:37;;;;;;;9.50;7.13;;;24.80;5.90;;;;;;5083550;28;20521;-72
2023/05/21 12:00:12;;;;;;;10.87;7.43;;;24.80;5.10;;;;;;5082329;28;20535;-71
2023/05/21 12:02:43;;;;;;;10.07;7.93;;;24.60;3.70;;;;;;5078621;28;21584;-72
2023/05/21 12:05:10;;;;;;;8.67;6.80;;;24.60;4.30;;;;;;5080257;28;20794;-74
2023/05/21 12:07:38;;;;;;;12.90;6.90;;;24.60;4.60;;;;;;5081915;28;20472;-73
2023/05/21 12:10:06;;;;;;;11.47;7.40;;;24.60;5.10;;;;;;5080982;28;20518;-70
2023/05/21 12:12:33;;;;;;;9.77;7.60;;;24.60;5.10;;;;;;5080804;28;20482;-72
2023/05/21 12:17:38;;;;;;;9.97;8.13;;;24.60;5.40;;;;;;5074158;28;20480;-69
2023/05/21 12:20:07;;;;;;;9.47;7.87;;;24.50;4.70;;;;;;5074735;28;20994;-71
2023/05/21 12:22:33;;;;;;;9.80;8.00;;;24.60;4.80;;;;;;5070204;28;20489;-71
2023/05/21 12:25:03;;;;;;;11.10;8.90;;;24.60;5.50;;;;;;5053156;28;20462;-70
2023/05/21 12:27:30;;;;;;;10.03;7.40;;;24.60;5.70;;;;;;5066740;28;20457;-71
2023/05/21 12:29:57;;;;;;;11.10;8.23;;;24.50;5.00;;;;;;5065261;28;20506;-71
2023/05/21 12:32:27;;;;;;;9.17;6.67;;;24.50;5.40;;;;;;5058391;28;20843;-71
2023/05/21 12:34:56;;;;;;;13.53;7.13;;;24.40;4.20;;;;;;5059791;28;20474;-71
2023/05/21 12:37:24;;;;;;;12.53;7.73;;;24.40;3.90;;;;;;5057901;28;20945;-70
2023/05/21 12:39:52;;;;;;;10.40;7.23;;;24.40;5.20;;;;;;5060394;28;20484;-70
2023/05/21 12:42:26;;;;;;;10.03;7.47;;;24.50;6.00;;;;;;5060783;28;20500;-70